Time;durP1;ratioP1;P1;durP2;ratioP2;P2;SDS_P1;SDS_P2;PMS_P1;PMS_P2;Temp;Humidity;BMP_temperature;BMP_pressure;BME280_temperature;BME280_humidity;BME280_pressure;Samples;Min_cycle;Max_cycle;Signal;HPM_P1;HPM_P2
2022/11/28 00:01:37;;;;;;;6.57;4.30;;;;;;;6.19;91.50;100901.94;5075079;28;20021;-76
2022/11/28 00:04:04;;;;;;;5.75;3.95;;;;;;;6.22;92.19;100896.75;5070083;28;20029;-76
2022/11/28 00:06:30;;;;;;;6.28;4.05;;;;;;;6.24;92.06;100894.16;5074508;28;20025;-77
2022/11/28 00:08:57;;;;;;;8.10;4.47;;;;;;;6.25;91.70;100892.44;5076441;28;20023;-76
2022/11/28 00:11:22;;;;;;;7.38;4.28;;;;;;;6.26;91.92;100891.59;5074730;28;20074;-76
2022/11/28 00:13:48;;;;;;;7.70;4.60;;;;;;;6.27;91.58;100898.47;5074845;28;20020;-76
2022/11/28 00:16:16;;;;;;;6.40;4.10;;;;;;;6.28;91.56;100889.84;5074919;28;20021;-76
2022/11/28 00:18:42;;;;;;;6.60;4.13;;;;;;;6.32;91.61;100896.72;5067407;28;20373;-76
2022/11/28 00:21:11;;;;;;;6.75;4.30;;;;;;;6.35;91.34;100888.91;5074538;28;20066;-77
2022/11/28 00:23:36;;;;;;;8.45;4.03;;;;;;;6.37;91.48;100887.19;5074410;28;20089;-76
2022/11/28 00:26:24;;;;;;;6.65;4.20;;;;;;;6.40;91.93;100883.75;5062440;28;20032;-77
2022/11/28 00:28:50;;;;;;;5.38;3.65;;;;;;;6.40;91.51;100882.00;5075113;28;20487;-77
2022/11/28 00:31:18;;;;;;;7.03;3.90;;;;;;;6.43;91.66;100879.41;5084630;28;20043;-77
2022/11/28 00:33:43;;;;;;;6.10;3.88;;;;;;;6.45;91.47;100884.53;5062137;28;20082;-76
2022/11/28 00:36:09;;;;;;;6.60;3.58;;;;;;;6.46;91.56;100879.38;5074594;28;20032;-77
2022/11/28 00:38:35;;;;;;;6.78;3.95;;;;;;;6.47;91.33;100881.09;5090182;28;20059;-76
2022/11/28 00:41:06;;;;;;;6.82;3.70;;;;;;;6.51;91.37;100874.16;5074519;28;20056;-77
2022/11/28 00:43:32;;;;;;;5.05;3.58;;;;;;;6.53;91.45;100869.84;5072727;28;20378;-76
2022/11/28 00:45:58;;;;;;;5.72;3.60;;;;;;;6.53;91.29;100865.50;5070308;28;20114;-77
2022/11/28 00:48:24;;;;;;;5.50;3.58;;;;;;;6.58;91.51;100873.22;5075232;28;20033;-77
2022/11/28 00:50:50;;;;;;;6.55;3.55;;;;;;;6.58;91.83;100867.22;5078861;28;20040;-77
2022/11/28 00:53:15;;;;;;;5.47;3.53;;;;;;;6.61;91.44;100872.34;5077319;28;20051;-76
2022/11/28 00:55:41;;;;;;;5.00;3.25;;;;;;;6.64;91.08;100873.19;5074321;28;20024;-76
2022/11/28 00:58:06;;;;;;;5.50;3.45;;;;;;;6.67;91.02;100867.09;5072638;28;20028;-76
2022/11/28 01:00:32;;;;;;;5.80;3.28;;;;;;;6.69;91.20;100867.97;5063669;28;20509;-77
2022/11/28 01:02:57;;;;;;;5.38;3.30;;;;;;;6.71;91.24;100863.63;5087474;28;20383;-76
2022/11/28 01:05:22;;;;;;;5.88;3.38;;;;;;;6.72;91.42;100857.59;5074177;28;20084;-77
2022/11/28 01:07:48;;;;;;;6.07;3.33;;;;;;;6.75;91.14;100852.41;5074269;28;20021;-76
2022/11/28 01:10:13;;;;;;;6.15;3.13;;;;;;;6.77;90.96;100863.59;5071513;28;20024;-76
2022/11/28 01:12:38;;;;;;;6.40;3.17;;;;;;;6.79;90.98;100856.69;5071557;28;20020;-77
2022/11/28 01:15:06;;;;;;;5.43;3.22;;;;;;;6.81;90.83;100860.09;5074876;28;20491;-76
2022/11/28 01:17:31;;;;;;;4.53;2.90;;;;;;;6.82;90.52;100863.53;5072325;28;20438;-76
2022/11/28 01:19:57;;;;;;;4.78;2.90;;;;;;;6.82;90.91;100863.53;5074787;28;20029;-77
2022/11/28 01:22:22;;;;;;;5.50;3.22;;;;;;;6.82;90.72;100860.94;5068942;28;20129;-77
2022/11/28 01:24:47;;;;;;;4.47;2.92;;;;;;;6.83;91.13;100860.91;5073956;28;20057;-77
2022/11/28 01:27:12;;;;;;;6.55;3.25;;;;;;;6.83;90.91;100853.16;5072286;28;20039;-76
2022/11/28 01:29:38;;;;;;;5.20;3.25;;;;;;;6.83;91.05;100852.31;5058950;28;20028;-76
2022/11/28 01:32:03;;;;;;;6.47;3.30;;;;;;;6.83;90.95;100850.56;5073369;28;20017;-76
2022/11/28 01:34:28;;;;;;;5.10;3.00;;;;;;;6.82;90.94;100856.66;5072772;28;20024;-76
2022/11/28 01:36:54;;;;;;;5.32;3.20;;;;;;;6.83;91.11;100860.91;5073550;28;20447;-77
2022/11/28 01:39:19;;;;;;;6.63;3.40;;;;;;;6.83;90.92;100863.50;5073725;28;20042;-76
2022/11/28 01:41:44;;;;;;;4.93;3.08;;;;;;;6.84;91.14;100864.38;5073546;28;20371;-77
2022/11/28 01:44:12;;;;;;;6.15;3.35;;;;;;;6.84;91.32;100862.63;5073680;28;20078;-77
2022/11/28 01:46:37;;;;;;;6.85;3.15;;;;;;;6.86;91.05;100861.75;5053854;28;20029;-77
2022/11/28 01:49:21;;;;;;;5.40;3.40;;;;;;;6.86;91.50;100862.63;5059896;28;20123;-76
2022/11/28 01:51:49;;;;;;;5.57;3.47;;;;;;;6.86;91.60;100857.47;5073374;28;20042;-77
2022/11/28 01:54:17;;;;;;;5.75;3.10;;;;;;;6.87;91.67;100860.91;5073647;28;20042;-77
2022/11/28 01:56:57;;;;;;;5.55;3.22;;;;;;;6.86;91.60;100861.75;5069995;28;20024;-77
2022/11/28 01:59:26;;;;;;;5.55;3.40;;;;;;;6.85;91.76;100853.16;5071056;28;20028;-77
2022/11/28 02:01:51;;;;;;;5.35;3.42;;;;;;;6.85;91.61;100855.75;5073159;28;20188;-76
2022/11/28 02:04:17;;;;;;;5.78;3.63;;;;;;;6.85;91.96;100848.00;5073318;28;20573;-76
2022/11/28 02:06:43;;;;;;;5.07;3.42;;;;;;;6.86;91.57;100852.28;5071610;28;20025;-77
2022/11/28 02:09:13;;;;;;;6.20;3.55;;;;;;;6.87;91.90;100854.00;5080863;28;20039;-77
2022/11/28 02:12:27;;;;;;;5.30;3.17;;;;;;;6.87;91.75;100845.38;5072975;28;20020;-77
2022/11/28 02:15:13;;;;;;;6.00;3.35;;;;;;;6.89;92.14;100853.97;5072729;28;20028;-77
2022/11/28 02:18:03;;;;;;;6.03;2.92;;;;;;;6.87;92.03;100846.25;5060331;28;20040;-77
2022/11/28 02:20:52;;;;;;;3.97;2.63;;;;;;;6.88;91.94;100844.50;5073248;28;20032;-77
2022/11/28 02:23:47;;;;;;;4.55;2.45;;;;;;;6.87;91.71;100841.09;5070246;28;20050;-76
2022/11/28 02:26:43;;;;;;;4.57;2.58;;;;;;;6.89;91.72;100841.06;5065428;28;20533;-77
2022/11/28 02:29:19;;;;;;;3.67;2.40;;;;;;;6.87;92.03;100833.31;5091373;28;20062;-76
2022/11/28 02:32:09;;;;;;;6.57;2.50;;;;;;;6.86;91.74;100831.59;5091389;28;20048;-76
2022/11/28 02:35:12;;;;;;;4.65;2.60;;;;;;;6.86;91.89;100835.91;5056937;28;20055;-76
2022/11/28 02:38:08;;;;;;;4.45;2.47;;;;;;;6.86;92.16;100838.50;5002312;28;20030;-76
2022/11/28 02:41:08;;;;;;;4.80;2.38;;;;;;;6.84;92.34;100838.53;5060874;28;20055;-77
2022/11/28 02:43:55;;;;;;;3.75;2.20;;;;;;;6.83;92.29;100841.97;5031034;28;20369;-76
2022/11/28 02:46:39;;;;;;;4.10;2.42;;;;;;;6.82;92.75;100837.69;5049708;28;20530;-76
2022/11/28 02:49:10;;;;;;;5.20;1.90;;;;;;;6.81;92.75;100834.25;5055456;28;20024;-76
2022/11/28 02:51:45;;;;;;;3.47;2.00;;;;;;;6.80;92.84;100837.69;5052732;28;20021;-77
2022/11/28 02:54:13;;;;;;;3.95;2.00;;;;;;;6.80;92.89;100836.84;5092633;28;20500;-77
2022/11/28 02:56:47;;;;;;;3.08;2.03;;;;;;;6.80;93.40;100834.25;5092869;28;20482;-77
2022/11/28 02:59:31;;;;;;;4.47;2.25;;;;;;;6.80;93.04;100836.84;5089761;28;20501;-77
2022/11/28 03:01:58;;;;;;;3.50;2.03;;;;;;;6.76;93.18;100825.66;5076478;28;20032;-77
2022/11/28 03:04:43;;;;;;;4.68;2.72;;;;;;;6.76;93.71;100825.66;5075504;28;20460;-77
2022/11/28 03:07:22;;;;;;;4.25;2.03;;;;;;;6.74;93.72;100824.81;5080706;28;20016;-77
2022/11/28 03:09:55;;;;;;;4.88;2.28;;;;;;;6.74;93.80;100817.06;5076069;28;20395;-77
2022/11/28 03:12:49;;;;;;;4.10;2.70;;;;;;;6.74;94.06;100817.06;5076200;28;20081;-77
2022/11/28 03:15:18;;;;;;;3.25;2.10;;;;;;;6.72;94.45;100820.56;5074570;28;20422;-77
2022/11/28 03:18:07;;;;;;;3.47;2.33;;;;;;;6.72;94.33;100823.97;5076512;28;20037;-77
2022/11/28 03:21:13;;;;;;;4.82;2.22;;;;;;;6.73;94.10;100828.28;5066593;28;20036;-77
2022/11/28 03:23:45;;;;;;;4.13;2.20;;;;;;;6.71;94.73;100824.84;5042047;28;20119;-77
2022/11/28 03:26:29;;;;;;;2.90;2.00;;;;;;;6.70;95.07;100822.28;5077729;28;20034;-77
2022/11/28 03:29:01;;;;;;;3.15;2.00;;;;;;;6.68;95.24;100823.16;5078996;28;20103;-77
2022/11/28 03:31:35;;;;;;;5.00;2.45;;;;;;;6.67;95.08;100828.34;5077953;28;20031;-76
2022/11/28 03:34:05;;;;;;;3.97;2.40;;;;;;;6.66;95.35;100818.91;5074711;28;20032;-77
2022/11/28 03:36:36;;;;;;;4.93;2.60;;;;;;;6.64;95.29;100821.47;5082870;28;20457;-77
2022/11/28 03:39:08;;;;;;;5.32;2.22;;;;;;;6.64;95.65;100815.47;5078782;28;20027;-76
2022/11/28 03:41:38;;;;;;;4.03;2.40;;;;;;;6.63;95.75;100824.09;5068143;28;20055;-77
2022/11/28 03:44:09;;;;;;;4.55;2.22;;;;;;;6.63;95.84;100821.50;5079090;28;20093;-77
2022/11/28 03:46:40;;;;;;;4.38;2.38;;;;;;;6.62;95.90;100820.63;5081397;28;20532;-77
2022/11/28 03:49:08;;;;;;;5.17;2.37;;;;;;;6.61;96.19;100818.06;5075596;28;20020;-77
2022/11/28 03:51:43;;;;;;;3.40;2.10;;;;;;;6.59;96.35;100819.81;5075170;28;20377;-76
2022/11/28 03:54:21;;;;;;;5.05;2.30;;;;;;;6.59;96.41;100812.06;5075521;28;20039;-77
2022/11/28 03:56:58;;;;;;;3.90;2.38;;;;;;;6.60;96.37;100808.59;5080580;28;20025;-77
2022/11/28 03:59:37;;;;;;;4.10;2.50;;;;;;;6.60;96.10;100814.63;5066496;28;20027;-77
2022/11/28 04:02:13;;;;;;;3.90;2.30;;;;;;;6.60;96.43;100818.94;5067254;28;20020;-77
2022/11/28 04:04:41;;;;;;;4.38;2.47;;;;;;;6.58;96.44;100818.09;5060969;28;20075;-77
2022/11/28 04:07:22;;;;;;;3.75;2.40;;;;;;;6.57;96.49;100821.56;5067225;28;20028;-77
2022/11/28 04:10:21;;;;;;;4.30;2.28;;;;;;;6.55;96.65;100815.53;5074557;28;20032;-76
2022/11/28 04:13:01;;;;;;;3.97;2.35;;;;;;;6.55;96.55;100815.53;5074742;28;20016;-76
2022/11/28 04:15:38;;;;;;;5.15;2.63;;;;;;;6.55;96.78;100828.47;5073942;28;20052;-76
2022/11/28 04:18:06;;;;;;;4.30;2.60;;;;;;;6.53;96.74;100818.16;5070947;28;20049;-76
2022/11/28 04:20:40;;;;;;;4.78;2.85;;;;;;;6.53;96.52;100825.91;5074674;28;20035;-77
2022/11/28 04:23:10;;;;;;;4.53;2.70;;;;;;;6.51;97.23;100817.31;5073357;28;20029;-77
2022/11/28 04:25:41;;;;;;;4.07;2.63;;;;;;;6.49;96.69;100819.88;5074908;28;20497;-77
2022/11/28 04:28:12;;;;;;;3.92;2.33;;;;;;;6.49;97.31;100819.88;5076802;28;20048;-77
2022/11/28 04:30:39;;;;;;;3.80;2.57;;;;;;;6.49;97.02;100825.06;5078923;28;20384;-77
2022/11/28 04:33:08;;;;;;;4.85;2.53;;;;;;;6.49;97.27;100831.97;5072505;28;20024;-77
2022/11/28 04:35:42;;;;;;;4.65;2.65;;;;;;;6.48;97.51;100820.78;5074050;28;20433;-77
2022/11/28 04:38:10;;;;;;;5.63;2.55;;;;;;;6.47;97.44;100821.66;5072360;28;20486;-77
2022/11/28 04:40:51;;;;;;;4.80;2.83;;;;;;;6.48;97.42;100820.78;5082204;28;20025;-77
2022/11/28 04:43:23;;;;;;;5.43;2.63;;;;;;;6.47;97.62;100819.06;5078608;28;20063;-77
2022/11/28 04:45:53;;;;;;;5.70;2.70;;;;;;;6.46;97.55;100816.47;5072564;28;20645;-77
2022/11/28 04:48:19;;;;;;;5.78;2.97;;;;;;;6.45;98.13;100820.81;5067571;28;20367;-77
2022/11/28 04:51:21;;;;;;;3.92;2.40;;;;;;;6.47;98.07;100820.78;5072401;28;20029;-77
2022/11/28 04:54:01;;;;;;;3.60;2.40;;;;;;;6.47;97.99;100823.34;5071734;28;20074;-77
2022/11/28 04:56:37;;;;;;;3.55;2.28;;;;;;;6.46;98.31;100821.66;5076444;28;20043;-77
2022/11/28 04:59:04;;;;;;;3.92;2.30;;;;;;;6.46;98.07;100821.66;5074877;28;20093;-77
2022/11/28 05:01:31;;;;;;;3.72;2.38;;;;;;;6.46;98.38;100819.06;5082127;28;20032;-77
2022/11/28 05:03:57;;;;;;;4.60;2.72;;;;;;;6.46;98.42;100822.53;5074894;28;20032;-77
2022/11/28 05:06:31;;;;;;;4.35;2.67;;;;;;;6.47;98.34;100824.22;5076921;28;20071;-77
2022/11/28 05:08:56;;;;;;;3.17;2.25;;;;;;;6.46;98.11;100817.34;5077781;28;20225;-77
2022/11/28 05:11:22;;;;;;;3.28;2.40;;;;;;;6.47;98.41;100823.34;5089326;28;20137;-77
2022/11/28 05:13:47;;;;;;;4.45;2.72;;;;;;;6.46;98.46;100822.53;5086613;28;20067;-77
2022/11/28 05:16:14;;;;;;;4.03;2.90;;;;;;;6.46;98.65;100822.53;5072742;28;20029;-77
2022/11/28 05:18:40;;;;;;;4.53;2.67;;;;;;;6.48;98.80;100835.41;5087713;28;20511;-77
2022/11/28 05:21:07;;;;;;;3.90;2.42;;;;;;;6.46;98.91;100832.84;5073593;28;20021;-76
2022/11/28 05:23:36;;;;;;;3.40;2.40;;;;;;;6.47;98.76;100824.22;5079767;28;20029;-76
2022/11/28 05:26:06;;;;;;;4.32;2.40;;;;;;;6.46;98.92;100830.28;5072456;28;20376;-77
2022/11/28 05:28:31;;;;;;;4.15;2.55;;;;;;;6.47;99.37;100829.41;5080911;28;20024;-77
2022/11/28 05:30:58;;;;;;;4.28;2.53;;;;;;;6.47;99.06;100834.56;5073079;28;20027;-76
2022/11/28 05:33:23;;;;;;;4.35;2.60;;;;;;;6.46;99.16;100834.56;5080377;28;20392;-76
2022/11/28 05:35:48;;;;;;;4.45;2.60;;;;;;;6.46;99.26;100832.84;5072231;28;20020;-76
2022/11/28 05:38:14;;;;;;;3.75;2.35;;;;;;;6.45;99.18;100838.91;5068915;28;20025;-76
2022/11/28 05:40:43;;;;;;;4.30;2.40;;;;;;;6.45;99.34;100844.06;5069380;28;20078;-77
2022/11/28 05:43:09;;;;;;;3.72;2.40;;;;;;;6.47;99.58;100841.44;5072034;28;20029;-77
2022/11/28 05:45:38;;;;;;;4.65;2.50;;;;;;;6.47;99.47;100839.75;5073152;28;20081;-77
2022/11/28 05:48:03;;;;;;;4.63;2.80;;;;;;;6.47;99.42;100844.03;5071478;28;20033;-77
2022/11/28 05:50:28;;;;;;;4.50;2.70;;;;;;;6.46;99.73;100840.59;5072312;28;20029;-77
2022/11/28 05:52:54;;;;;;;3.90;2.40;;;;;;;6.46;99.80;100840.59;5069672;28;20027;-77
2022/11/28 05:55:19;;;;;;;4.47;2.55;;;;;;;6.47;99.69;100839.75;5071705;28;20387;-77
2022/11/28 05:57:44;;;;;;;5.15;2.50;;;;;;;6.49;99.31;100842.28;5071879;28;20089;-77
2022/11/28 06:00:10;;;;;;;4.90;2.35;;;;;;;6.49;99.91;100847.47;5069459;28;20051;-77
2022/11/28 06:02:35;;;;;;;4.45;2.78;;;;;;;6.48;99.56;100841.47;5077757;28;20360;-77
2022/11/28 06:05:00;;;;;;;5.22;2.65;;;;;;;6.51;99.76;100837.97;5077100;28;20035;-76
2022/11/28 06:07:26;;;;;;;5.32;2.47;;;;;;;6.52;99.58;100834.53;5077154;28;20028;-77
2022/11/28 06:09:51;;;;;;;3.67;2.58;;;;;;;6.51;99.56;100836.22;5075091;28;20097;-77
2022/11/28 06:12:16;;;;;;;5.05;2.63;;;;;;;6.51;99.47;100831.06;5076565;28;20016;-76
2022/11/28 06:14:41;;;;;;;3.83;2.47;;;;;;;6.51;99.60;100830.22;5071076;28;20024;-77
2022/11/28 06:17:07;;;;;;;4.38;2.60;;;;;;;6.52;99.93;100832.78;5066929;28;20128;-77
2022/11/28 06:19:32;;;;;;;4.55;2.50;;;;;;;6.52;99.58;100837.94;5090810;28;20055;-77
2022/11/28 06:21:57;;;;;;;4.50;2.78;;;;;;;6.53;100.00;100844.84;5075676;28;20040;-77
2022/11/28 06:24:22;;;;;;;5.45;2.40;;;;;;;6.53;99.99;100839.66;5071451;28;20483;-77
2022/11/28 06:26:48;;;;;;;4.07;2.40;;;;;;;6.56;99.49;100848.28;5079040;28;20032;-77
2022/11/28 06:29:13;;;;;;;5.20;2.67;;;;;;;6.53;99.72;100837.09;5075436;28;20487;-76
2022/11/28 06:31:38;;;;;;;3.67;2.50;;;;;;;6.55;99.69;100850.00;5072262;28;20028;-77
2022/11/28 06:34:03;;;;;;;4.25;2.63;;;;;;;6.55;99.69;100849.13;5070949;28;20028;-77
2022/11/28 06:36:29;;;;;;;3.70;2.42;;;;;;;6.55;99.52;100852.59;5071256;28;20426;-77
2022/11/28 06:38:55;;;;;;;3.95;2.47;;;;;;;6.54;100.00;100853.47;5071564;28;20039;-77
2022/11/28 06:41:21;;;;;;;4.30;2.70;;;;;;;6.53;100.00;100855.16;5068333;28;21612;-76
2022/11/28 06:43:47;;;;;;;4.13;2.67;;;;;;;6.53;99.91;100857.75;5071266;28;20472;-77
2022/11/28 06:46:22;;;;;;;3.63;2.40;;;;;;;6.53;99.86;100860.34;5071612;28;20040;-76
2022/11/28 06:48:49;;;;;;;6.22;2.40;;;;;;;6.55;99.97;100862.06;5070418;28;20539;-77
2022/11/28 06:51:15;;;;;;;4.68;2.90;;;;;;;6.53;100.00;100855.16;5069142;28;20047;-77
2022/11/28 06:53:40;;;;;;;5.63;2.72;;;;;;;6.54;99.86;100858.63;5080370;28;20031;-76
2022/11/28 06:56:08;;;;;;;3.95;2.60;;;;;;;6.53;100.00;100860.34;5083489;28;20531;-77
2022/11/28 06:58:34;;;;;;;5.50;2.72;;;;;;;6.55;99.87;100859.47;5063980;28;20028;-77
2022/11/28 07:01:09;;;;;;;3.92;2.63;;;;;;;6.55;99.97;100862.94;5064197;28;20088;-77
2022/11/28 07:03:34;;;;;;;4.32;2.58;;;;;;;6.55;99.94;100862.94;5069701;28;20559;-78
2022/11/28 07:06:01;;;;;;;4.10;2.72;;;;;;;6.55;100.00;100859.47;5071004;28;20119;-77
2022/11/28 07:08:28;;;;;;;5.38;2.75;;;;;;;6.56;100.00;100863.78;5072560;28;20021;-78
2022/11/28 07:10:53;;;;;;;3.83;2.55;;;;;;;6.57;100.00;100857.75;5070650;28;20025;-78
2022/11/28 07:13:18;;;;;;;4.57;2.75;;;;;;;6.56;99.78;100861.19;5072537;28;20407;-77
2022/11/28 07:15:48;;;;;;;5.25;2.90;;;;;;;6.56;99.96;100869.81;5070167;28;20081;-76
2022/11/28 07:18:14;;;;;;;4.97;3.20;;;;;;;6.55;100.00;100868.09;5072332;28;20065;-77
2022/11/28 07:20:39;;;;;;;5.18;2.95;;;;;;;6.56;99.87;100863.78;5064062;28;20440;-76
2022/11/28 07:23:05;;;;;;;5.75;3.30;;;;;;;6.56;99.62;100859.47;5052397;28;20025;-76
2022/11/28 07:25:30;;;;;;;4.93;2.85;;;;;;;6.56;100.00;100863.78;5060495;28;20403;-76
2022/11/28 07:27:55;;;;;;;4.50;2.95;;;;;;;6.60;99.93;100868.06;5067022;28;20047;-76
2022/11/28 07:30:22;;;;;;;5.25;3.00;;;;;;;6.59;100.00;100872.34;5071529;28;20047;-76
2022/11/28 07:32:47;;;;;;;4.75;3.17;;;;;;;6.60;99.97;100876.66;5069605;28;20483;-77
2022/11/28 07:35:12;;;;;;;4.47;3.30;;;;;;;6.60;100.00;100878.41;5075167;28;20090;-77
2022/11/28 07:37:38;;;;;;;5.20;2.97;;;;;;;6.60;100.00;100871.47;5075561;28;20086;-77
2022/11/28 07:40:04;;;;;;;7.40;3.53;;;;;;;6.62;100.00;100871.50;5070938;28;20383;-77
2022/11/28 07:42:29;;;;;;;5.78;3.10;;;;;;;6.62;99.83;100874.91;5070403;28;20506;-77
2022/11/28 07:44:54;;;;;;;4.30;3.10;;;;;;;6.64;99.82;100880.94;5067319;28;20025;-77
2022/11/28 07:47:20;;;;;;;4.72;3.42;;;;;;;6.62;99.85;100876.66;5077444;28;20029;-77
2022/11/28 07:49:45;;;;;;;5.32;3.10;;;;;;;6.63;100.00;100878.38;5074781;28;20048;-76
2022/11/28 07:52:11;;;;;;;3.78;2.85;;;;;;;6.63;100.00;100884.38;5079034;28;20043;-77
2022/11/28 07:54:36;;;;;;;5.40;3.53;;;;;;;6.65;100.00;100884.38;5074764;28;20029;-77
2022/11/28 07:57:01;;;;;;;5.97;3.42;;;;;;;6.66;100.00;100891.28;5073906;28;20032;-77
2022/11/28 07:59:27;;;;;;;5.55;3.60;;;;;;;6.65;99.92;100886.97;5075776;28;20016;-77
2022/11/28 08:01:52;;;;;;;5.28;3.47;;;;;;;6.65;99.84;100899.91;5075480;28;20043;-77
2022/11/28 08:04:18;;;;;;;5.22;3.65;;;;;;;6.65;100.00;100910.25;5066638;28;20025;-77
2022/11/28 08:06:43;;;;;;;6.10;3.50;;;;;;;6.65;100.00;100910.25;5058959;28;20043;-77
2022/11/28 08:09:10;;;;;;;5.78;3.88;;;;;;;6.66;99.99;100906.78;5067761;28;20055;-77
2022/11/28 08:11:36;;;;;;;5.50;3.65;;;;;;;6.65;100.00;100900.75;5074115;28;20055;-77
2022/11/28 08:14:03;;;;;;;6.45;3.58;;;;;;;6.66;100.00;100899.03;5070194;28;20487;-77
2022/11/28 08:16:29;;;;;;;5.20;3.58;;;;;;;6.67;99.77;100898.13;5087428;28;20043;-77
2022/11/28 08:18:55;;;;;;;5.35;3.90;;;;;;;6.67;100.00;100898.13;5078090;28;20052;-76
2022/11/28 08:21:23;;;;;;;5.90;3.90;;;;;;;6.69;100.00;100901.56;5078949;28;20032;-77
2022/11/28 08:23:50;;;;;;;5.38;3.65;;;;;;;6.68;100.00;100899.84;5082286;28;20093;-77
2022/11/28 08:26:20;;;;;;;5.03;3.70;;;;;;;6.69;100.00;100901.56;5076567;28;20024;-77
2022/11/28 08:28:45;;;;;;;5.15;3.65;;;;;;;6.70;100.00;100898.13;5064379;28;20025;-77
2022/11/28 08:31:12;;;;;;;5.25;3.80;;;;;;;6.71;100.00;100907.59;5067001;28;20066;-77
2022/11/28 08:33:38;;;;;;;5.75;3.85;;;;;;;6.73;100.00;100907.59;5075053;28;20025;-77
2022/11/28 08:36:08;;;;;;;6.40;3.42;;;;;;;6.73;100.00;100908.44;5056525;28;20368;-77
2022/11/28 08:38:34;;;;;;;5.80;4.03;;;;;;;6.73;100.00;100911.03;5081526;28;20047;-77
2022/11/28 08:41:02;;;;;;;5.57;3.97;;;;;;;6.74;100.00;100915.31;5078718;28;20028;-77
2022/11/28 08:43:27;;;;;;;5.00;3.70;;;;;;;6.75;100.00;100906.69;5069994;28;20185;-77
2022/11/28 08:45:52;;;;;;;5.68;3.85;;;;;;;6.77;100.00;100919.59;5085221;28;20032;-77
2022/11/28 08:48:17;;;;;;;5.70;3.80;;;;;;;6.78;100.00;100914.44;5087713;28;20020;-77
2022/11/28 08:50:47;;;;;;;5.38;3.63;;;;;;;6.81;100.00;100916.13;5073703;28;20376;-77
2022/11/28 08:53:12;;;;;;;5.68;3.70;;;;;;;6.82;100.00;100913.53;5081472;28;20432;-77
2022/11/28 08:55:45;;;;;;;5.53;4.05;;;;;;;6.83;100.00;100910.06;5094909;28;20103;-77
2022/11/28 08:58:11;;;;;;;5.25;3.72;;;;;;;6.87;100.00;100915.19;5077574;28;20041;-76
2022/11/28 09:00:37;;;;;;;5.95;3.78;;;;;;;6.88;100.00;100914.34;5075959;28;20021;-77
2022/11/28 09:03:03;;;;;;;5.40;3.88;;;;;;;6.90;100.00;100916.06;5073741;28;20028;-77
2022/11/28 09:05:29;;;;;;;5.65;3.85;;;;;;;6.93;100.00;100916.00;5062139;28;20025;-77
2022/11/28 09:07:56;;;;;;;5.35;3.55;;;;;;;6.95;100.00;100913.41;5070549;28;20040;-77
2022/11/28 09:10:22;;;;;;;5.85;3.95;;;;;;;6.96;100.00;100920.31;5073659;28;20031;-77
2022/11/28 09:12:47;;;;;;;5.32;3.67;;;;;;;6.97;100.00;100922.03;5073303;28;20020;-77
2022/11/28 09:15:12;;;;;;;5.25;3.53;;;;;;;6.98;100.00;100922.00;5077119;28;20024;-77
2022/11/28 09:17:39;;;;;;;5.40;3.65;;;;;;;6.99;100.00;100922.88;5063324;28;20048;-77
2022/11/28 09:20:05;;;;;;;5.38;3.90;;;;;;;7.00;100.00;100927.16;5053880;28;20070;-76
2022/11/28 09:22:30;;;;;;;5.03;3.85;;;;;;;6.99;100.00;100922.88;5060641;28;20106;-76
2022/11/28 09:24:55;;;;;;;4.65;3.67;;;;;;;7.00;100.00;100922.00;5075513;28;20467;-76
2022/11/28 09:27:21;;;;;;;5.65;3.92;;;;;;;7.02;100.00;100929.72;5079111;28;20036;-76
2022/11/28 09:29:46;;;;;;;5.57;4.05;;;;;;;7.03;100.00;100934.88;5077676;28;20028;-76
2022/11/28 09:32:11;;;;;;;5.85;3.95;;;;;;;7.05;100.00;100927.13;5069827;28;20032;-76
2022/11/28 09:34:36;;;;;;;5.88;4.00;;;;;;;7.07;100.00;100933.97;5072312;28;20024;-76
2022/11/28 09:37:02;;;;;;;5.72;4.03;;;;;;;7.08;100.00;100934.84;5073990;28;20066;-77
2022/11/28 09:39:27;;;;;;;6.45;4.15;;;;;;;7.11;100.00;100935.69;5072342;28;20029;-77
2022/11/28 09:42:01;;;;;;;7.93;4.40;;;;;;;7.13;100.00;100938.22;5066508;28;20037;-77
2022/11/28 09:44:39;;;;;;;5.93;4.28;;;;;;;7.13;100.00;100923.59;5053766;28;20039;-77
2022/11/28 09:47:16;;;;;;;5.43;4.15;;;;;;;7.17;100.00;100934.75;5088285;28;20173;-77
2022/11/28 09:49:47;;;;;;;6.18;4.15;;;;;;;7.17;100.00;100929.56;5084355;28;20046;-77
2022/11/28 09:52:16;;;;;;;6.93;4.63;;;;;;;7.21;100.00;100928.69;5074318;28;20032;-77
2022/11/28 09:55:11;;;;;;;5.57;4.03;;;;;;;7.25;100.00;100934.66;5073534;28;20029;-77
2022/11/28 09:57:42;;;;;;;6.18;4.45;;;;;;;7.25;100.00;100947.63;5084823;28;20035;-76
2022/11/28 10:00:20;;;;;;;8.23;4.35;;;;;;;7.26;100.00;100937.22;5053908;28;20082;-77
2022/11/28 10:03:06;;;;;;;6.28;4.32;;;;;;;7.28;100.00;100939.81;5087460;28;20032;-77
2022/11/28 10:05:57;;;;;;;5.85;4.10;;;;;;;7.28;100.00;100932.91;5089991;28;20107;-77
2022/11/28 10:09:03;;;;;;;6.10;4.35;;;;;;;7.31;100.00;100932.03;5053276;28;20082;-76
2022/11/28 10:12:09;;;;;;;5.45;4.20;;;;;;;7.33;100.00;100932.88;5074423;28;20032;-76
2022/11/28 10:14:52;;;;;;;6.18;4.03;;;;;;;7.34;100.00;100926.81;5071735;28;20085;-77
2022/11/28 10:17:42;;;;;;;6.47;4.45;;;;;;;7.36;100.00;100932.81;5071220;28;20032;-77
2022/11/28 10:20:19;;;;;;;5.35;3.97;;;;;;;7.39;100.00;100934.53;5089363;28;20040;-76
2022/11/28 10:22:56;;;;;;;5.80;4.05;;;;;;;7.39;100.00;100937.97;5088946;28;20032;-77
2022/11/28 10:25:27;;;;;;;5.85;3.78;;;;;;;7.40;100.00;100931.91;5078838;28;20035;-77
2022/11/28 10:27:54;;;;;;;7.22;4.25;;;;;;;7.41;100.00;100933.63;5078465;28;20035;-77
2022/11/28 10:30:25;;;;;;;5.63;3.78;;;;;;;7.47;100.00;100931.84;5091159;28;20107;-77
2022/11/28 10:33:07;;;;;;;5.20;4.03;;;;;;;7.49;100.00;100937.88;5083366;28;20492;-77
2022/11/28 10:35:45;;;;;;;6.22;4.32;;;;;;;7.52;100.00;100932.63;5060986;28;20102;-77
2022/11/28 10:38:12;;;;;;;5.85;4.00;;;;;;;7.55;100.00;100932.59;5074696;28;20030;-77
2022/11/28 10:41:19;;;;;;;6.47;4.18;;;;;;;7.58;100.00;100932.56;5077072;28;20069;-77
2022/11/28 10:44:05;;;;;;;5.53;4.00;;;;;;;7.59;100.00;100931.72;5041438;28;20071;-77
2022/11/28 10:47:08;;;;;;;6.35;4.25;;;;;;;7.62;100.00;100936.84;5072932;28;20127;-77
2022/11/28 10:49:59;;;;;;;5.57;3.90;;;;;;;7.65;100.00;100935.94;5073735;28;20017;-77
2022/11/28 10:52:50;;;;;;;6.15;4.20;;;;;;;7.67;100.00;100942.84;5080850;28;20027;-77
2022/11/28 10:55:35;;;;;;;6.13;4.25;;;;;;;7.69;100.00;100946.25;5084774;28;20463;-77
2022/11/28 10:58:14;;;;;;;5.90;4.20;;;;;;;7.70;100.00;100947.13;5078438;28;20037;-77
2022/11/28 11:00:41;;;;;;;6.15;4.32;;;;;;;7.70;100.00;100944.53;5068422;28;20111;-77
2022/11/28 11:03:12;;;;;;;7.20;4.65;;;;;;;7.71;100.00;100938.47;5064178;28;20028;-77
2022/11/28 11:05:37;;;;;;;5.95;4.28;;;;;;;7.73;100.00;100941.91;5072466;28;20032;-77
2022/11/28 11:08:09;;;;;;;7.35;4.57;;;;;;;7.74;100.00;100947.06;5053988;28;20017;-77
2022/11/28 11:10:40;;;;;;;7.35;4.80;;;;;;;7.77;100.00;100942.72;5079118;28;20028;-77
2022/11/28 11:13:14;;;;;;;6.07;4.38;;;;;;;7.77;100.00;100940.97;5077097;28;20081;-77
2022/11/28 11:15:40;;;;;;;7.35;4.90;;;;;;;7.79;100.00;100943.56;5075902;28;20031;-77
2022/11/28 11:18:21;;;;;;;7.35;4.72;;;;;;;7.80;100.00;100945.28;5074315;28;20052;-77
2022/11/28 11:20:46;;;;;;;6.80;4.60;;;;;;;7.80;100.00;100942.69;5078682;28;20032;-77
2022/11/28 11:23:14;;;;;;;6.68;4.72;;;;;;;7.81;100.00;100941.81;5065514;28;20036;-77
2022/11/28 11:25:50;;;;;;;7.72;4.70;;;;;;;7.81;100.00;100947.00;5081580;28;20409;-77
2022/11/28 11:28:24;;;;;;;8.00;4.85;;;;;;;7.82;100.00;100940.94;5081174;28;20108;-77
2022/11/28 11:30:58;;;;;;;7.80;5.07;;;;;;;7.82;100.00;100938.34;5068379;28;20031;-77
2022/11/28 11:33:29;;;;;;;8.25;4.78;;;;;;;7.84;100.00;100941.78;5078198;28;20459;-76
2022/11/28 11:35:54;;;;;;;7.70;5.25;;;;;;;7.85;100.00;100940.91;5086696;28;20031;-77
2022/11/28 11:38:19;;;;;;;6.97;5.15;;;;;;;7.87;100.00;100934.81;5082382;28;20029;-77
2022/11/28 11:40:46;;;;;;;8.38;5.40;;;;;;;7.88;100.00;100939.13;5076735;28;20032;-77
2022/11/28 11:43:20;;;;;;;9.18;5.40;;;;;;;7.92;100.00;100937.34;5086247;28;20085;-76
2022/11/28 11:45:45;;;;;;;7.72;5.20;;;;;;;7.94;100.00;100943.34;5069608;28;20055;-77
2022/11/28 11:48:11;;;;;;;8.70;5.72;;;;;;;7.97;100.00;100943.31;5069320;28;20059;-77